Time;durP1;ratioP1;P1;durP2;ratioP2;P2;SDS_P1;SDS_P2;PMS_P1;PMS_P2;Temp;Humidity;BMP_temperature;BMP_pressure;BME280_temperature;BME280_humidity;BME280_pressure;Samples;Min_cycle;Max_cycle;Signal;HPM_P1;HPM_P2
2024/01/23 00:01:48;;;;;;;41.92;18.25;;;;;;;-3.89;73.36;100699.69;4923465;29;20024;-90
2024/01/23 00:04:14;;;;;;;38.65;17.27;;;;;;;-3.90;72.83;100700.66;4906865;29;20031;-90
2024/01/23 00:06:40;;;;;;;37.35;17.40;;;;;;;-3.96;72.16;100697.78;4907940;29;20062;-91
2024/01/23 00:09:06;;;;;;;36.75;16.58;;;;;;;-3.92;72.11;100696.50;4924084;29;20039;-90
2024/01/23 00:11:32;;;;;;;33.67;15.57;;;;;;;-3.79;71.69;100701.47;4924793;29;20036;-90
2024/01/23 00:13:57;;;;;;;39.80;15.70;;;;;;;-3.80;72.04;100702.44;4924574;29;20439;-90
2024/01/23 00:16:23;;;;;;;38.58;17.45;;;;;;;-3.95;71.77;100673.94;4940040;29;20053;-90
2024/01/23 00:18:49;;;;;;;38.10;16.40;;;;;;;-4.01;72.33;100679.75;4925901;29;20027;-91
2024/01/23 00:21:14;;;;;;;32.20;15.18;;;;;;;-4.00;72.26;100680.63;4925319;29;20035;-91
2024/01/23 00:23:40;;;;;;;32.95;15.20;;;;;;;-3.94;71.69;100672.97;4910057;29;20064;-91
2024/01/23 00:26:05;;;;;;;35.60;14.70;;;;;;;-4.03;71.20;100660.66;4926995;29;20501;-92
2024/01/23 00:28:31;;;;;;;25.17;12.77;;;;;;;-3.90;71.48;100687.50;4916107;29;20027;-91
2024/01/23 00:30:56;;;;;;;35.72;14.30;;;;;;;-4.09;71.77;100666.50;4930066;28;20031;-91
2024/01/23 00:33:22;;;;;;;42.40;15.25;;;;;;;-4.11;71.71;100690.31;4922693;29;20031;-91
2024/01/23 00:35:48;;;;;;;33.85;14.95;;;;;;;-4.31;72.10;100659.75;4902145;29;20128;-90
2024/01/23 00:38:13;;;;;;;36.58;14.48;;;;;;;-4.31;71.99;100675.53;4888118;29;20028;-90
2024/01/23 00:40:39;;;;;;;31.45;16.08;;;;;;;-4.48;73.13;100663.94;4920564;29;20031;-90
2024/01/23 00:43:04;;;;;;;36.67;15.95;;;;;;;-4.37;72.54;100673.47;4914494;29;20055;-91
2024/01/23 00:45:30;;;;;;;33.10;15.68;;;;;;;-4.39;72.56;100676.22;4918252;29;20079;-91
2024/01/23 00:47:55;;;;;;;36.20;15.02;;;;;;;-4.51;72.59;100665.00;4943104;29;20111;-90
2024/01/23 00:50:21;;;;;;;36.75;15.50;;;;;;;-4.62;73.11;100648.56;4922338;29;20023;-90
2024/01/23 00:52:46;;;;;;;28.63;13.85;;;;;;;-4.71;73.26;100651.06;4921934;29;20134;-91
2024/01/23 00:55:12;;;;;;;32.20;15.25;;;;;;;-4.65;73.42;100647.03;4923611;29;20027;-91
2024/01/23 00:57:37;;;;;;;32.30;14.82;;;;;;;-4.50;73.36;100645.66;4922673;29;20102;-90
2024/01/23 01:00:05;;;;;;;34.55;15.93;;;;;;;-4.43;72.81;100651.19;4907899;29;20050;-90
2024/01/23 01:02:31;;;;;;;34.85;15.35;;;;;;;-4.38;72.84;100637.63;4907474;29;20451;-90
2024/01/23 01:04:57;;;;;;;27.35;13.07;;;;;;;-4.39;72.25;100620.19;4939343;29;20023;-90
2024/01/23 01:07:23;;;;;;;32.42;14.63;;;;;;;-4.18;72.29;100652.41;4939150;29;20098;-90
2024/01/23 01:09:48;;;;;;;39.15;16.38;;;;;;;-4.29;72.45;100647.31;4907382;29;20414;-90
2024/01/23 01:12:14;;;;;;;41.38;16.67;;;;;;;-4.17;72.37;100655.84;4907641;29;20063;-90
2024/01/23 01:14:39;;;;;;;31.05;13.48;;;;;;;-4.31;72.62;100644.81;4906952;29;20047;-90
2024/01/23 01:17:05;;;;;;;28.75;14.73;;;;;;;-4.27;72.28;100654.06;4907094;29;20510;-90
2024/01/23 01:19:33;;;;;;;33.33;14.95;;;;;;;-4.39;72.55;100631.53;4907674;29;20023;-90
2024/01/23 01:21:59;;;;;;;30.13;13.40;;;;;;;-4.37;72.90;100639.28;4906971;29;20032;-90
2024/01/23 01:24:24;;;;;;;28.95;14.20;;;;;;;-4.39;72.94;100641.22;4907113;29;20035;-90
2024/01/23 01:26:50;;;;;;;29.67;12.88;;;;;;;-4.42;72.21;100631.81;4923531;29;20020;-90
2024/01/23 01:29:15;;;;;;;28.85;13.07;;;;;;;-4.47;72.17;100655.06;4906369;29;20047;-90
2024/01/23 01:31:41;;;;;;;24.00;12.25;;;;;;;-4.49;71.99;100631.53;4923248;29;20051;-88
2024/01/23 01:34:06;;;;;;;27.90;11.98;;;;;;;-4.40;72.44;100637.78;4907366;29;20091;-90
2024/01/23 01:36:32;;;;;;;28.02;13.30;;;;;;;-4.34;72.59;100637.19;4907794;29;20028;-90
2024/01/23 01:39:00;;;;;;;24.25;12.73;;;;;;;-4.48;72.74;100612.19;4911287;29;20026;-91
2024/01/23 01:41:25;;;;;;;20.92;11.30;;;;;;;-4.44;72.35;100610.09;4901388;29;20095;-91
2024/01/23 01:43:51;;;;;;;24.08;10.65;;;;;;;-4.47;71.69;100594.59;4908870;29;20035;-91
2024/01/23 01:46:25;;;;;;;24.02;11.02;;;;;;;-4.28;71.42;100630.53;4924815;29;20063;-91
2024/01/23 01:48:51;;;;;;;25.77;12.35;;;;;;;-4.51;72.16;100617.69;4921525;29;20414;-91
2024/01/23 01:51:21;;;;;;;28.20;10.80;;;;;;;-4.33;72.47;100620.44;4906991;29;20027;-91
2024/01/23 01:53:46;;;;;;;28.63;12.00;;;;;;;-4.33;72.00;100601.22;4906452;29;20454;-91
2024/01/23 01:56:12;;;;;;;23.25;11.02;;;;;;;-4.34;71.66;100587.22;4905175;29;20024;-91
2024/01/23 01:58:39;;;;;;;26.92;12.43;;;;;;;-4.43;72.22;100592.53;4905902;29;20103;-90
2024/01/23 02:01:05;;;;;;;26.67;12.15;;;;;;;-4.42;71.28;100574.00;4905402;29;20024;-90
2024/01/23 02:03:30;;;;;;;23.35;12.50;;;;;;;-4.37;72.43;100590.16;4906124;29;20115;-91
2024/01/23 02:05:57;;;;;;;24.15;12.48;;;;;;;-4.30;71.92;100593.88;4922894;29;20082;-91
2024/01/23 02:08:22;;;;;;;22.73;10.48;;;;;;;-4.35;71.70;100585.59;4905214;29;20036;-91
2024/01/23 02:10:48;;;;;;;29.25;13.23;;;;;;;-4.51;71.37;100578.28;4922589;29;20059;-91
2024/01/23 02:13:13;;;;;;;24.90;11.15;;;;;;;-4.58;72.07;100577.19;4904911;29;20098;-91
2024/01/23 02:15:39;;;;;;;23.85;11.90;;;;;;;-4.82;72.62;100588.13;4905264;29;20118;-91
2024/01/23 02:18:05;;;;;;;23.23;12.77;;;;;;;-4.75;73.00;100576.09;4922207;29;20024;-91
2024/01/23 02:20:30;;;;;;;25.70;11.07;;;;;;;-4.66;72.51;100582.31;4905292;29;20107;-91
2024/01/23 02:22:56;;;;;;;27.83;12.13;;;;;;;-4.48;72.62;100590.34;4905258;29;20079;-91
2024/01/23 02:25:21;;;;;;;29.42;12.55;;;;;;;-4.65;72.81;100585.75;4907073;29;20047;-91
2024/01/23 02:27:47;;;;;;;24.65;11.85;;;;;;;-4.67;72.44;100578.00;4937395;29;20027;-91
2024/01/23 02:30:12;;;;;;;21.48;10.93;;;;;;;-4.58;72.88;100569.31;4905327;29;20063;-91
2024/01/23 02:32:46;;;;;;;23.10;11.35;;;;;;;-4.56;71.97;100571.81;4904983;29;20020;-90
2024/01/23 02:35:12;;;;;;;22.02;10.55;;;;;;;-4.73;72.15;100553.16;4906255;29;20028;-91
2024/01/23 02:37:38;;;;;;;21.70;9.85;;;;;;;-4.77;71.91;100559.66;4905967;29;20032;-91
2024/01/23 02:40:07;;;;;;;24.73;10.02;;;;;;;-4.82;72.78;100587.31;4905010;29;20118;-90
2024/01/23 02:42:32;;;;;;;20.90;9.63;;;;;;;-5.05;73.33;100566.56;4921830;29;20028;-90
2024/01/23 02:44:58;;;;;;;19.73;9.38;;;;;;;-5.10;73.22;100580.09;4922261;29;20505;-90
2024/01/23 02:47:24;;;;;;;18.38;9.63;;;;;;;-5.00;73.39;100566.13;4920920;29;20594;-91
2024/01/23 02:49:50;;;;;;;20.45;8.88;;;;;;;-5.00;73.35;100569.63;4921744;29;20027;-91
2024/01/23 02:52:15;;;;;;;17.55;8.73;;;;;;;-5.09;73.33;100573.88;4904916;29;20512;-90
2024/01/23 02:54:41;;;;;;;21.23;9.95;;;;;;;-5.22;74.25;100569.88;4922672;29;20028;-90
2024/01/23 02:57:06;;;;;;;18.55;9.65;;;;;;;-5.21;73.92;100572.34;4924829;29;20019;-91
2024/01/23 02:59:32;;;;;;;21.20;9.23;;;;;;;-5.16;73.65;100574.56;4947565;29;20026;-91
2024/01/23 03:01:58;;;;;;;18.60;9.55;;;;;;;-5.31;74.09;100564.47;4927148;29;20020;-91
2024/01/23 03:04:23;;;;;;;18.15;9.45;;;;;;;-5.16;74.19;100577.22;4925392;29;20063;-91
2024/01/23 03:06:49;;;;;;;24.30;10.40;;;;;;;-5.22;74.09;100572.50;4909691;29;20024;-91
2024/01/23 03:09:14;;;;;;;18.88;9.45;;;;;;;-5.27;73.09;100559.78;4905854;29;20025;-90
2024/01/23 03:11:40;;;;;;;19.13;9.25;;;;;;;-5.22;73.34;100575.13;4888941;29;20027;-91
2024/01/23 03:14:06;;;;;;;21.25;9.68;;;;;;;-5.17;73.00;100583.41;4889651;29;20027;-90
2024/01/23 03:16:32;;;;;;;18.15;9.52;;;;;;;-5.26;73.11;100569.31;4905882;29;20364;-91
2024/01/23 03:18:57;;;;;;;17.58;8.75;;;;;;;-5.32;72.58;100569.84;4898210;29;20027;-96
2024/01/23 03:21:23;;;;;;;16.25;7.93;;;;;;;-5.33;71.96;100542.78;4900622;29;20096;-94
2024/01/23 03:23:49;;;;;;;25.08;9.88;;;;;;;-5.26;72.07;100539.63;4899376;29;20087;-95
2024/01/23 03:26:15;;;;;;;19.55;9.85;;;;;;;-5.20;72.43;100532.00;4898266;29;20047;-96
2024/01/23 03:28:41;;;;;;;20.05;10.70;;;;;;;-5.33;72.14;100523.59;4899465;29;20036;-96
2024/01/23 03:31:10;;;;;;;22.98;9.38;;;;;;;-5.27;72.66;100541.41;4898356;29;20036;-96
2024/01/23 03:33:36;;;;;;;24.83;9.52;;;;;;;-5.54;73.16;100529.78;4915606;29;20024;-96
2024/01/23 03:36:02;;;;;;;20.63;9.57;;;;;;;-5.53;73.98;100527.97;4900341;29;20036;-96
2024/01/23 03:38:33;;;;;;;17.48;9.57;;;;;;;-5.38;73.66;100531.03;4897170;29;20499;-96
2024/01/23 03:41:26;;;;;;;24.60;10.45;;;;;;;-5.34;72.59;100506.16;4923805;29;20049;-96
2024/01/23 03:44:21;;;;;;;22.90;10.70;;;;;;;-5.16;72.44;100522.06;4908743;29;20055;-95
2024/01/23 03:46:50;;;;;;;17.05;9.13;;;;;;;-5.41;73.35;100533.94;4917922;29;20103;-95
2024/01/23 03:49:29;;;;;;;20.45;9.52;;;;;;;-5.40;73.26;100506.72;4888661;29;20041;-95
2024/01/23 03:52:02;;;;;;;27.35;10.07;;;;;;;-5.34;72.45;100509.59;4874187;29;20131;-96
2024/01/23 03:54:39;;;;;;;21.13;10.80;;;;;;;-5.38;72.41;100500.34;4904788;29;20092;-96
2024/01/23 03:57:07;;;;;;;22.45;9.65;;;;;;;-5.37;72.49;100501.22;4885042;29;20120;-96
2024/01/23 03:59:43;;;;;;;26.40;10.13;;;;;;;-5.23;72.14;100508.66;4885400;29;20080;-95
2024/01/23 04:07:48;;;;;;;24.15;10.30;;;;;;;-5.70;73.95;100472.56;5214778;23;20154;-96
2024/01/23 04:10:18;;;;;;;20.10;9.10;;;;;;;-5.42;73.84;100487.66;4924436;29;20041;-95
2024/01/23 04:12:47;;;;;;;22.95;10.32;;;;;;;-5.20;73.71;100486.56;4939844;29;20023;-96
2024/01/23 04:15:16;;;;;;;21.17;11.27;;;;;;;-5.39;73.93;100477.72;4924062;29;20019;-95
2024/01/23 04:17:42;;;;;;;27.83;12.00;;;;;;;-5.27;74.27;100470.53;4924211;29;20027;-96
2024/01/23 04:20:09;;;;;;;30.50;10.85;;;;;;;-5.19;74.16;100475.06;4941102;29;20043;-96
2024/01/23 04:22:38;;;;;;;24.05;10.68;;;;;;;-5.22;74.63;100459.63;4924162;29;20038;-95
2024/01/23 04:25:05;;;;;;;26.75;11.07;;;;;;;-5.02;74.24;100470.91;4936401;29;20023;-96
2024/01/23 04:27:31;;;;;;;26.50;10.52;;;;;;;-5.05;74.51;100455.44;4916841;29;20074;-94
2024/01/23 04:29:57;;;;;;;26.67;11.43;;;;;;;-5.10;74.40;100461.94;4916744;29;20062;-95
2024/01/23 04:32:23;;;;;;;28.88;11.07;;;;;;;-5.05;74.63;100477.28;4915172;29;20027;-96
2024/01/23 04:34:48;;;;;;;25.05;11.80;;;;;;;-5.21;74.93;100446.31;4930891;29;20186;-96
2024/01/23 04:37:14;;;;;;;26.65;11.15;;;;;;;-5.23;75.56;100429.88;4916615;29;20019;-96
2024/01/23 04:39:40;;;;;;;24.13;11.57;;;;;;;-4.99;74.56;100428.63;4917914;29;20135;-96
2024/01/23 04:42:05;;;;;;;29.40;12.68;;;;;;;-4.91;74.47;100440.06;4917808;29;20107;-96
2024/01/23 04:44:31;;;;;;;25.55;11.15;;;;;;;-4.89;74.08;100409.25;4915671;29;20027;-96
2024/01/23 04:46:57;;;;;;;25.20;12.32;;;;;;;-4.77;74.05;100428.31;4917557;29;20048;-96
2024/01/23 04:49:22;;;;;;;30.55;12.77;;;;;;;-4.79;73.65;100414.47;4916118;29;20027;-95
2024/01/23 04:51:48;;;;;;;30.98;12.77;;;;;;;-4.88;74.10;100400.41;4914578;29;20028;-95
2024/01/23 04:54:14;;;;;;;28.45;12.43;;;;;;;-4.91;74.41;100397.22;4915996;29;20117;-96
2024/01/23 04:56:40;;;;;;;22.73;11.88;;;;;;;-4.67;73.32;100420.38;4914830;29;20039;-96
2024/01/23 04:59:06;;;;;;;29.45;11.63;;;;;;;-4.65;73.52;100404.47;4915948;29;20034;-95
2024/01/23 05:01:33;;;;;;;33.88;13.15;;;;;;;-4.67;72.48;100387.06;4930422;29;20066;-95
2024/01/23 05:04:02;;;;;;;29.00;13.18;;;;;;;-4.70;72.81;100389.13;4913533;29;20023;-96
2024/01/23 05:06:29;;;;;;;32.10;14.77;;;;;;;-4.49;72.42;100391.53;4929200;29;20492;-91
2024/01/23 05:08:55;;;;;;;30.80;13.93;;;;;;;-4.51;72.31;100386.41;4932640;29;20027;-91
2024/01/23 05:11:20;;;;;;;29.63;13.07;;;;;;;-4.63;72.66;100389.38;4903540;29;20030;-91
2024/01/23 05:13:46;;;;;;;29.92;13.07;;;;;;;-4.62;72.81;100372.66;4899766;29;20024;-91
2024/01/23 05:16:12;;;;;;;25.83;12.75;;;;;;;-4.57;72.75;100368.59;4897819;29;20062;-91
2024/01/23 05:18:37;;;;;;;33.28;11.90;;;;;;;-4.67;72.13;100352.06;4917727;29;20478;-91
2024/01/23 05:21:03;;;;;;;177.13;124.28;;;;;;;-4.62;73.29;100373.47;4924684;29;20123;-92
2024/01/23 05:23:29;;;;;;;43.42;22.25;;;;;;;-4.48;73.43;100385.31;4929528;29;20058;-95
2024/01/23 05:25:54;;;;;;;33.63;13.23;;;;;;;-4.56;72.68;100345.81;4897531;29;20490;-92
2024/01/23 05:28:20;;;;;;;30.48;12.90;;;;;;;-4.38;72.84;100365.06;4910518;29;20549;-94
2024/01/23 05:30:46;;;;;;;30.27;13.30;;;;;;;-4.32;72.10;100347.88;4900078;29;20114;-91
2024/01/23 05:33:12;;;;;;;31.73;14.02;;;;;;;-4.35;72.45;100349.00;4890667;29;20479;-91
2024/01/23 05:35:37;;;;;;;32.55;13.93;;;;;;;-4.16;71.66;100348.03;4922756;29;20111;-91
2024/01/23 05:38:03;;;;;;;30.63;13.13;;;;;;;-4.26;71.92;100348.09;4890713;29;20071;-90
2024/01/23 05:40:28;;;;;;;33.72;13.50;;;;;;;-4.30;71.94;100343.28;4910826;29;20026;-92
2024/01/23 05:42:54;;;;;;;30.63;12.80;;;;;;;-4.41;72.61;100333.00;4925310;29;20027;-90
2024/01/23 05:45:25;;;;;;;31.38;13.93;;;;;;;-4.24;72.21;100347.94;4900981;29;20058;-90
2024/01/23 05:47:50;;;;;;;25.83;11.13;;;;;;;-4.28;72.04;100315.84;4927869;29;20581;-91
2024/01/23 05:50:16;;;;;;;39.22;13.32;;;;;;;-4.16;72.10;100331.44;4925080;29;20113;-92
2024/01/23 05:52:41;;;;;;;25.13;11.50;;;;;;;-4.12;71.70;100338.06;4943799;29;20019;-96
2024/01/23 05:55:08;;;;;;;28.10;12.75;;;;;;;-4.21;71.58;100321.38;4910190;29;20057;-95
2024/01/23 05:57:35;;;;;;;29.75;12.35;;;;;;;-4.45;71.99;100307.97;4925666;29;20031;-92
2024/01/23 06:00:05;;;;;;;26.33;11.57;;;;;;;-4.42;72.34;100328.69;4915090;29;20022;-95
2024/01/23 06:02:34;;;;;;;29.20;12.52;;;;;;;-4.39;72.20;100304.75;4926011;29;20079;-91
2024/01/23 06:04:59;;;;;;;27.30;11.52;;;;;;;-4.29;72.21;100337.06;4913221;29;20097;-91
2024/01/23 06:07:25;;;;;;;29.35;11.73;;;;;;;-4.41;71.63;100317.22;4912950;29;20064;-92
2024/01/23 06:09:50;;;;;;;24.45;11.32;;;;;;;-4.40;71.41;100311.81;4915169;29;20414;-91
2024/01/23 06:12:16;;;;;;;24.42;11.00;;;;;;;-4.30;70.52;100312.56;4925922;29;20052;-91
2024/01/23 06:14:41;;;;;;;30.27;12.10;;;;;;;-4.42;71.08;100323.44;4912571;29;20031;-91
2024/01/23 06:17:07;;;;;;;35.42;15.02;;;;;;;-4.10;70.43;100339.56;4919981;29;20035;-92
2024/01/23 06:19:35;;;;;;;25.38;11.85;;;;;;;-4.15;70.22;100335.72;4921906;29;20035;-91
2024/01/23 06:22:03;;;;;;;21.80;9.88;;;;;;;-4.35;69.80;100301.66;4922451;29;20028;-92
2024/01/23 06:24:37;;;;;;;29.83;11.15;;;;;;;-4.36;68.04;100313.16;4886884;29;20122;-91
2024/01/23 06:27:28;;;;;;;23.45;10.35;;;;;;;-4.43;68.97;100350.72;4909729;29;20043;-96
2024/01/23 06:30:00;;;;;;;23.90;10.95;;;;;;;-4.74;70.06;100308.97;4891841;29;20049;-96
2024/01/23 06:32:29;;;;;;;24.30;10.75;;;;;;;-4.51;69.65;100354.06;4880164;29;20041;-96
2024/01/23 06:34:54;;;;;;;23.75;11.35;;;;;;;-4.57;69.94;100339.69;4874736;29;20511;-94
2024/01/23 06:37:20;;;;;;;28.23;10.80;;;;;;;-4.75;69.67;100321.28;4890783;29;20029;-92
2024/01/23 06:40:28;;;;;;;27.48;11.13;;;;;;;-4.92;70.52;100317.63;4877463;29;20049;-96
2024/01/23 06:43:47;;;;;;;;;;;;;;;;;;;;;
2024/01/23 06:47:02;;;;;;;;;;;;;;;;;;;;;
2024/01/23 06:49:57;;;;;;;24.95;12.05;;;;;;;-4.49;70.04;100341.59;4877719;29;20101;-95
2024/01/23 06:56:53;;;;;;;;;;;;;;;;;;;;;
2024/01/23 07:00:10;;;;;;;;;;;;;;;;;;;;;
2024/01/23 07:03:04;;;;;;;29.92;12.65;;;;;;;-4.18;67.68;100370.19;4828895;29;20117;-95
2024/01/23 07:05:45;;;;;;;29.95;12.38;;;;;;;-4.41;67.44;100343.50;4806283;29;20062;-93
2024/01/23 07:13:59;;;;;;;24.95;12.68;;;;;;;-4.09;68.27;100375.41;5642411;23;20277;-95
2024/01/23 07:16:27;;;;;;;32.42;15.18;;;;;;;-4.38;68.30;100351.06;4953839;29;20055;-95
2024/01/23 07:27:22;;;;;;;26.85;11.30;;;;;;;-4.36;67.33;100384.13;5411354;23;20079;-96
2024/01/23 07:29:48;;;;;;;20.88;10.18;;;;;;;-4.33;68.02;100407.50;4940020;29;20024;-92
2024/01/23 07:32:13;;;;;;;23.45;11.38;;;;;;;-4.30;68.26;100393.22;4903908;29;20032;-91
2024/01/23 07:34:39;;;;;;;26.48;11.20;;;;;;;-4.20;67.06;100388.75;4894734;29;20545;-90
2024/01/23 07:37:05;;;;;;;21.20;9.75;;;;;;;-4.02;66.28;100396.69;4894176;29;20118;-92
2024/01/23 07:39:30;;;;;;;27.15;11.13;;;;;;;-3.90;66.22;100413.06;4913138;29;20027;-93
2024/01/23 07:41:56;;;;;;;27.73;11.43;;;;;;;-3.70;65.54;100408.50;4897598;29;20062;-91
2024/01/23 07:44:22;;;;;;;21.90;10.20;;;;;;;-3.79;65.71;100410.22;4893351;29;20020;-91
2024/01/23 07:46:48;;;;;;;22.27;11.27;;;;;;;-3.84;65.45;100403.75;4894037;29;20482;-91
2024/01/23 07:49:14;;;;;;;32.47;12.10;;;;;;;-3.59;65.52;100439.88;4893307;29;20077;-91
2024/01/23 07:51:46;;;;;;;24.00;11.23;;;;;;;-3.81;65.07;100414.00;4923415;29;20040;-90
2024/01/23 07:54:12;;;;;;;23.92;10.73;;;;;;;-3.90;65.24;100432.31;4922983;29;20070;-89
2024/01/23 07:56:37;;;;;;;22.05;9.95;;;;;;;-3.97;65.63;100422.53;4906708;29;20035;-92
2024/01/23 07:59:03;;;;;;;23.08;10.80;;;;;;;-3.95;64.91;100439.81;4909613;29;20031;-93
2024/01/23 08:01:28;;;;;;;19.90;10.20;;;;;;;-4.10;65.98;100446.56;4908779;29;20114;-91
2024/01/23 08:03:54;;;;;;;24.52;10.85;;;;;;;-4.04;66.01;100463.56;4895383;29;20031;-94
2024/01/23 08:06:19;;;;;;;23.73;10.82;;;;;;;-4.18;65.44;100473.56;4892479;29;20032;-93
2024/01/23 08:08:45;;;;;;;27.88;11.65;;;;;;;-4.32;66.15;100492.44;4903943;29;20062;-94
2024/01/23 08:11:39;;;;;;;28.13;12.02;;;;;;;-4.27;66.78;100498.94;4902002;29;20038;-95
2024/01/23 08:14:05;;;;;;;22.20;10.23;;;;;;;-4.39;66.21;100499.28;4910886;29;20027;-96
2024/01/23 08:16:31;;;;;;;24.35;11.07;;;;;;;-4.33;65.71;100496.88;4906605;29;20380;-96
2024/01/23 08:19:01;;;;;;;20.60;9.57;;;;;;;-4.44;65.82;100519.88;5019631;23;20063;-93
2024/01/23 08:21:27;;;;;;;26.45;11.68;;;;;;;-4.59;66.52;100520.34;4885170;29;20036;-95
2024/01/23 08:23:56;;;;;;;25.35;11.10;;;;;;;-4.92;66.64;100504.09;4892667;29;20039;-96
2024/01/23 08:26:24;;;;;;;23.25;9.88;;;;;;;-4.80;67.37;100536.28;4904981;29;20104;-95
2024/01/23 08:28:50;;;;;;;24.08;11.48;;;;;;;-5.03;67.47;100506.03;4873487;29;20493;-93
2024/01/23 08:31:19;;;;;;;30.65;11.55;;;;;;;-4.77;67.48;100517.63;4880441;29;20112;-95
2024/01/23 08:33:45;;;;;;;28.02;11.98;;;;;;;-5.03;67.66;100519.16;4907860;29;20501;-95
2024/01/23 08:36:12;;;;;;;26.17;11.55;;;;;;;-4.81;67.19;100526.75;4891959;29;20032;-94
2024/01/23 08:38:41;;;;;;;22.20;10.52;;;;;;;-5.06;65.33;100522.91;4875918;29;20044;-96
2024/01/23 08:41:09;;;;;;;;;;;;;;;-5.16;66.25;100569.31;4892485;29;20036;-93
2024/01/23 08:43:35;;;;;;;20.40;8.90;;;;;;;-5.57;65.77;100553.63;4918818;29;19911;-95
2024/01/23 08:46:01;;;;;;;25.55;11.55;;;;;;;-5.62;66.61;100562.88;4871700;29;20051;-92
2024/01/23 08:48:31;;;;;;;23.87;12.37;;;;;;;-5.69;67.51;100555.53;4871579;29;20115;-92
2024/01/23 08:50:58;;;;;;;26.43;10.77;;;;;;;-5.62;66.09;100555.84;4880453;29;20056;-93
2024/01/23 08:53:23;;;;;;;21.73;10.33;;;;;;;-5.72;65.73;100568.13;4888027;29;20043;-93
2024/01/23 08:55:52;;;;;;;26.53;10.07;;;;;;;-5.80;66.26;100566.16;4891884;29;20040;-90
2024/01/23 08:58:21;;;;;;;23.33;10.03;;;;;;;-5.94;67.43;100567.31;4888556;29;20033;-89
2024/01/23 09:00:48;;;;;;;35.10;13.15;;;;;;;-5.81;65.88;100574.13;4897549;29;20031;-92
2024/01/23 09:03:16;;;;;;;26.07;11.73;;;;;;;-5.93;65.45;100581.28;4884326;29;20040;-91
2024/01/23 09:05:42;;;;;;;26.27;10.80;;;;;;;-6.19;65.93;100565.19;4907255;29;20483;-92
2024/01/23 09:08:10;;;;;;;18.40;9.10;;;;;;;-6.21;65.88;100570.53;4889717;29;20024;-94
2024/01/23 09:10:36;;;;;;;23.67;10.90;;;;;;;-6.19;66.30;100573.88;4906595;29;20505;-94
2024/01/23 09:13:05;;;;;;;22.90;10.30;;;;;;;-6.11;67.14;100568.81;4906619;29;20088;-94
2024/01/23 09:15:34;;;;;;;18.40;8.97;;;;;;;-6.24;65.91;100549.03;4904956;29;20543;-94
2024/01/23 09:18:00;;;;;;;17.83;8.13;;;;;;;-6.40;67.09;100562.59;4878609;29;20464;-92
2024/01/23 09:20:30;;;;;;;21.47;9.73;;;;;;;-6.23;66.71;100567.22;4912159;29;20383;-92
2024/01/23 09:22:55;;;;;;;22.90;10.90;;;;;;;-6.07;65.14;100552.84;4891543;29;20028;-91
2024/01/23 09:25:21;;;;;;;17.37;9.43;;;;;;;-6.04;65.85;100569.09;4894605;29;20119;-91
2024/01/23 09:27:48;;;;;;;19.30;8.20;;;;;;;-5.97;63.97;100577.31;4888500;29;20115;-93
2024/01/23 09:30:14;;;;;;;20.27;9.07;;;;;;;-5.95;64.17;100578.00;4908441;29;20049;-91
2024/01/23 09:32:40;;;;;;;21.90;9.07;;;;;;;-6.00;65.07;100585.41;4910061;29;20035;-92
2024/01/23 09:35:14;;;;;;;17.27;8.40;;;;;;;-5.95;63.71;100572.75;4894910;29;20068;-92
2024/01/23 09:37:40;;;;;;;18.30;8.13;;;;;;;-6.17;64.26;100576.38;4891462;29;20055;-95
2024/01/23 09:40:09;;;;;;;16.23;8.37;;;;;;;-6.15;65.43;100583.13;4892395;29;20016;-94
2024/01/23 09:42:57;;;;;;;17.47;7.67;;;;;;;-6.05;65.68;100585.81;4902494;29;20388;-96
2024/01/23 09:45:32;;;;;;;16.27;8.30;;;;;;;-6.01;64.69;100550.50;4901360;29;20098;-95
2024/01/23 09:48:51;;;;;;;19.40;8.07;;;;;;;-5.67;64.28;100584.25;4917378;29;20032;-96
2024/01/23 09:51:17;;;;;;;16.30;7.97;;;;;;;-5.92;64.86;100586.38;4911887;29;20031;-96
2024/01/23 09:53:43;;;;;;;17.27;8.53;;;;;;;-5.96;64.63;100579.78;4905860;29;20028;-96
2024/01/23 09:56:14;;;;;;;23.87;10.33;;;;;;;-6.20;65.69;100576.66;4893523;29;20032;-94
2024/01/23 09:58:40;;;;;;;15.80;8.48;;;;;;;-6.16;64.56;100576.25;4904815;29;20088;-96
2024/01/23 10:01:06;;;;;;;15.23;8.17;;;;;;;-5.97;65.21;100558.94;4898058;29;20036;-96
2024/01/23 10:03:35;;;;;;;20.00;9.13;;;;;;;-5.72;65.24;100574.19;4890910;29;20040;-95
2024/01/23 10:06:11;;;;;;;18.57;7.80;;;;;;;-5.80;63.63;100557.44;4894926;29;20032;-96
2024/01/23 10:11:38;;;;;;;11.00;6.97;;;;;;;-5.71;63.59;100540.91;4916088;29;20044;-95
2024/01/23 10:14:05;;;;;;;14.60;8.13;;;;;;;-6.22;64.82;100536.63;4891999;29;20417;-92
2024/01/23 10:16:40;;;;;;;14.17;7.23;;;;;;;-5.87;65.71;100554.53;4889765;29;20128;-92
2024/01/23 10:19:19;;;;;;;18.57;8.00;;;;;;;-5.62;63.19;100529.63;4904938;29;20143;-96
2024/01/23 10:21:48;;;;;;;14.95;7.85;;;;;;;-5.70;63.11;100516.34;4888034;29;20029;-94
2024/01/23 10:24:13;;;;;;;20.40;8.60;;;;;;;-5.41;62.93;100534.75;4907912;29;20039;-93
2024/01/23 10:26:39;;;;;;;19.13;8.80;;;;;;;-5.25;62.12;100515.84;4899947;29;20092;-93
2024/01/23 10:31:41;;;;;;;15.45;8.60;;;;;;;-5.29;63.44;100511.84;5339638;23;20084;-93
2024/01/23 10:34:12;;;;;;;18.20;9.65;;;;;;;-5.15;63.95;100489.59;4907338;29;20055;-94
2024/01/23 10:36:55;;;;;;;15.93;8.48;;;;;;;-4.67;62.31;100512.31;4907239;29;20035;-96
2024/01/23 10:39:46;;;;;;;19.40;8.35;;;;;;;-4.92;63.94;100504.09;4952086;29;20037;-96
2024/01/23 10:42:17;;;;;;;21.17;7.20;;;;;;;-4.50;61.61;100482.69;4896786;29;20051;-96
2024/01/23 10:44:44;;;;;;;19.10;9.07;;;;;;;-4.18;60.88;100475.38;4914272;29;20015;-95
2024/01/23 10:47:15;;;;;;;15.25;7.80;;;;;;;-4.12;60.07;100466.91;4914200;29;20050;-95
2024/01/23 10:49:47;;;;;;;22.02;9.88;;;;;;;-3.92;59.95;100468.47;4915478;29;20028;-96
2024/01/23 10:52:21;;;;;;;17.80;8.32;;;;;;;-3.96;59.75;100443.44;4871232;29;20088;-93
2024/01/23 10:58:41;;;;;;;19.52;8.85;;;;;;;-3.91;59.69;100462.22;4897993;29;20040;-92
2024/01/23 11:01:10;;;;;;;20.73;9.57;;;;;;;-4.22;60.78;100416.16;4865987;29;20049;-95
2024/01/23 11:03:38;;;;;;;28.15;12.25;;;;;;;-3.86;60.24;100438.94;4867700;29;20044;-95
2024/01/23 11:06:10;;;;;;;24.23;11.55;;;;;;;-3.71;60.01;100441.88;4868836;29;20072;-96
2024/01/23 11:09:04;;;;;;;30.10;13.48;;;;;;;-3.29;59.56;100437.81;4881837;29;20041;-95
2024/01/23 11:11:38;;;;;;;21.33;10.75;;;;;;;-3.53;59.65;100451.59;4896444;29;20128;-96
2024/01/23 11:14:17;;;;;;;20.85;10.20;;;;;;;-3.47;58.83;100435.19;4901902;29;20467;-95
2024/01/23 11:23:45;;;;;;;23.25;12.02;;;;;;;-3.67;59.43;100397.69;4876456;29;20072;-94
2024/01/23 11:26:15;;;;;;;19.23;9.93;;;;;;;-3.57;59.32;100385.28;4911258;29;20066;-93
2024/01/23 11:28:51;;;;;;;24.77;11.63;;;;;;;-3.48;59.52;100383.53;4906270;29;20031;-95
2024/01/23 11:31:20;;;;;;;23.38;11.52;;;;;;;-3.38;59.14;100415.00;4865521;29;1504237;-96
2024/01/23 11:33:52;;;;;;;21.38;10.45;;;;;;;-3.39;59.53;100384.41;4922287;29;20043;-92
2024/01/23 11:36:21;;;;;;;27.50;10.70;;;;;;;-3.27;59.94;100412.16;4931585;29;20031;-93
2024/01/23 11:38:53;;;;;;;20.70;9.23;;;;;;;-3.10;59.29;100381.50;4931725;29;20055;-95
2024/01/23 11:41:27;;;;;;;23.70;11.05;;;;;;;-2.76;58.70;100404.41;4905446;29;20035;-95
2024/01/23 11:44:28;;;;;;;23.92;11.48;;;;;;;-3.11;58.97;100395.66;4915632;29;20406;-93
2024/01/23 11:47:21;;;;;;;34.88;12.43;;;;;;;-2.78;58.98;100420.41;4876440;29;20048;-96
2024/01/23 11:49:47;;;;;;;22.55;11.05;;;;;;;-3.12;59.72;100392.19;4887537;29;20064;-95
2024/01/23 11:52:22;;;;;;;20.55;9.45;;;;;;;-3.13;60.36;100381.81;4894226;29;20051;-95
2024/01/23 11:54:51;;;;;;;28.05;12.00;;;;;;;-3.09;60.82;100389.25;4887335;29;20487;-93
2024/01/23 11:57:24;;;;;;;22.50;9.88;;;;;;;-3.00;60.94;100376.13;4875912;29;20032;-96
2024/01/23 11:59:50;;;;;;;17.98;9.70;;;;;;;-2.55;60.02;100404.03;4902972;29;20120;-96
2024/01/23 12:02:15;;;;;;;24.27;11.02;;;;;;;-2.32;59.88;100402.50;4881587;29;20438;-95
2024/01/23 12:04:41;;;;;;;20.00;10.30;;;;;;;-2.90;60.28;100393.47;4865366;29;20051;-92
2024/01/23 12:07:07;;;;;;;20.90;10.55;;;;;;;-2.89;60.87;100403.03;4877906;29;20067;-95